• Join FlightAware (Why Join?)
  • Login
  • US Flag 
01:41AM EDT


 

Airport Tracker/Info


-or-


 

Live Flight TrackerFlight Track Log ✈ SWA2874 ✈ 03-May-2013 ✈ KTUL - KHOU

Flight Track Log - Related Links

Times and Time Zones

All times are in EDT time to prevent confusion due to time zone crossing. See the SWA2874 flight status page for this flight to view local times or setup timezone preferences in your user account.

Time Position Orientation Groundspeed Altitude Reporting Facility
EDT Latitude Longitude Course Direction KTS MPH feet Rate Location/Type
12:39PM 36.1950 -95.9100 246° West 162 186 1,400  Level Kansas City Center
12:40PM 36.1797 -95.9533 246° West 180 207 3,300 2,280 Climbing Kansas City Center
12:41PM 36.1464 -95.9578 186° South 237 273 4,700 2,520 Climbing Kansas City Center
12:41PM 36.1069 -95.9603 183° South 264 304 5,900 2,280 Climbing Kansas City Center
12:42PM 36.0711 -95.9606 180° South 266 306 7,100 3,300 Climbing Kansas City Center
12:43PM 35.9842 -95.9897 195° South 319 367 11,100 3,360 Climbing Kansas City Center
12:44PM 35.8892 -96.0183 194° South 340 391 14,000 1,860 Climbing Kansas City Center
12:45PM 35.7875 -96.0508 195° South 367 422 15,000 480 Climbing Kansas City Center
12:46PM 35.6883 -96.0778 192° South 376 433 15,000 1,020 Level Kansas City Center
12:46PM 35.6039 -96.1064 195° South 382 440 16,800 2,760 Climbing Fort Worth Center
12:47PM 35.5000 -96.1386 194° South 382 440 19,600 2,820 Climbing Fort Worth Center
12:48PM 35.3875 -96.1736 194° South 395 455 22,500 2,700 Climbing Fort Worth Center
12:49PM 35.2775 -96.2056 193° South 406 467 25,100 2,280 Climbing Fort Worth Center
12:50PM 35.1589 -96.2403 193° South 419 482 27,100 1,920 Climbing Fort Worth Center
12:51PM 35.0361 -96.2775 194° South 436 502 29,000 1,740 Climbing Fort Worth Center
12:52PM 34.9133 -96.3147 194° South 456 525 30,600 1,860 Climbing Fort Worth Center
12:53PM 34.7886 -96.3542 195° South 466 536 32,800 2,340 Climbing Fort Worth Center
12:54PM 34.6636 -96.3886 193° South 466 536 35,300 1,500 Climbing Fort Worth Center
12:55PM 34.5431 -96.4253 194° South 460 529 35,900 1,140 Climbing Fort Worth Center
12:56PM 34.4181 -96.4619 194° South 460 529 37,700 1,020 Climbing Fort Worth Center
12:57PM 34.2994 -96.4958 193° South 449 517 38,000 120 Climbing Fort Worth Center
12:58PM 34.1808 -96.5347 195° South 444 511 38,000  Level Fort Worth Center
12:59PM 34.0619 -96.5686 193° South 438 504 38,000  Level Fort Worth Center
01:00PM 33.9453 -96.6047 194° South 438 504 38,000  Level Fort Worth Center
01:01PM 33.8328 -96.6333 192° South 431 496 38,000  Level Fort Worth Center
01:02PM 33.7142 -96.6669 193° South 430 495 38,000  Level Fort Worth Center
01:03PM 33.6078 -96.7000 195° South 438 504 38,000  Level Fort Worth Center
01:04PM 33.4725 -96.7386 193° South 444 511 38,000  Level Fort Worth Center
01:05PM 33.3639 -96.7569 188° South 444 511 38,000  Level Fort Worth Center
01:06PM 33.2261 -96.7578 180° South 462 532 38,000 -120 Level Fort Worth Center
01:07PM 33.1114 -96.7586 180° South 456 525 37,800 -540 Descending Fort Worth Center
01:08PM 32.9694 -96.7597 180° South 456 525 37,000 -420 Descending Fort Worth Center
01:09PM 32.8567 -96.7581 179° South 456 525 37,000  Level Fort Worth Center
01:10PM 32.7253 -96.7567 179° South 451 519 37,000  Level Fort Worth Center
01:11PM 32.6125 -96.7550 179° South 451 519 37,000  Level Fort Worth Center
01:12PM 32.4747 -96.7558 180° South 451 519 37,000  Level Fort Worth Center
01:13PM 32.3619 -96.7567 180° South 451 519 37,000  Level Fort Worth Center
01:14PM 32.2472 -96.7550 179° South 451 519 37,000  Level Fort Worth Center
01:15PM 32.1094 -96.7561 180° South 457 526 37,000  Level Fort Worth Center
01:16PM 31.9842 -96.7544 179° South 452 520 37,000  Level Fort Worth Center
01:17PM 31.8483 -96.7556 180° South 452 520 37,000  Level Fort Worth Center
01:19PM 31.6453 -96.7553 180° South 449 517 37,000  Level Houston Center
01:20PM 31.4958 -96.7558 180° South 455 524 37,000 -660 Level Houston Center
01:21PM 31.3675 -96.7553 180° South 454 522 35,700 -2,400 Descending Houston Center
01:22PM 31.2342 -96.7550 180° South 469 540 32,100 -3,300 Descending Houston Center
01:23PM 31.0978 -96.7411 175° South 480 552 29,000 -2,820 Descending Houston Center
01:24PM 30.9622 -96.7183 172° South 483 556 26,300 -2,280 Descending Houston Center
01:25PM 30.8331 -96.6978 172° South 464 534 24,300 -2,040 Descending Houston Center
01:26PM 30.7161 -96.6672 167° South 431 496 22,100 -2,280 Descending Houston Center
01:27PM 30.6158 -96.5811 144° Southeast 446 513 19,600 -2,220 Descending Houston Center
01:28PM 30.5053 -96.4806 142° Southeast 428 493 17,600 -1,980 Descending Houston Center
01:29PM 30.4150 -96.3972 141° Southeast 414 476 15,600 -1,920 Descending Houston Center
01:30PM 30.3808 -96.3675 143° Southeast 403 464 14,800 -2,040 Descending Houston Center
01:31PM 30.3272 -96.3181 141° Southeast 401 461 13,500 -1,920 Descending Houston Center
01:32PM 30.2433 -96.2406 141° Southeast 386 444 11,700 -1,260 Descending Houston Center
01:33PM 30.1592 -96.1808 148° Southeast 357 411 11,000 -420 Descending Houston Center
01:34PM 30.0775 -96.1375 155° Southeast 344 396 10,900  Descending Houston Center
01:35PM 29.9706 -96.0803 155° Southeast 340 391 11,100  Climbing Houston Center
01:36PM 29.8894 -96.0383 156° South 337 388 10,900 -60 Descending Houston Center
01:37PM 29.8053 -95.9944 156° South 338 389 11,000  Climbing Houston Center
01:38PM 29.7261 -95.9369 148° Southeast 339 390 11,000 -600 Level Houston Center
01:39PM 29.6894 -95.8189 110° East 327 376 9,800 -1,200 Descending Houston Center
01:40PM 29.6769 -95.7228 98° East 319 367 8,600 -1,260 Descending Houston Center
01:41PM 29.6664 -95.6275 97° East 307 353 7,400 -780 Descending Houston Center
01:42PM 29.6731 -95.5394 85° East 281 323 7,000 -540 Descending Houston Center
01:43PM 29.6736 -95.4497 90° East 281 323 6,400 -540 Descending Houston Center
01:44PM 29.6100 -95.3786 136° Southeast 284 327 6,000 -420 Descending Houston Center
01:45PM 29.5544 -95.3228 139° Southeast 262 302 5,600 -720 Descending Houston Center
01:46PM 29.5061 -95.2542 129° Southeast 244 281 4,600 -1,080 Descending Houston Center
01:47PM 29.5281 -95.1964 354° North 201 231 3,500 -1,140 Descending Houston Center
01:48PM 29.6333 -95.2667 354° North  Level FlightAware Approximate
01:48PM 29.5717 -95.1911 North 163 188 2,400  Level Houston Center
01:49PM 29.6028 -95.2306 312° West 158 182 1,300 -1,080 Descending Houston Center
01:50PM 29.6283 -95.2586 316° Northwest 119 137 300 -1,020 Descending Houston Center